Time;durP1;ratioP1;P1;durP2;ratioP2;P2;SDS_P1;SDS_P2;PMS_P1;PMS_P2;Temp;Humidity;BMP_temperature;BMP_pressure;BME280_temperature;BME280_humidity;BME280_pressure;Samples;Min_cycle;Max_cycle;Signal;HPM_P1;HPM_P2
2022/03/27 00:00:35;;;;;;;0.50;0.40;;;;;;;0.56;80.98;97193.13;5015368;28;20057;-56
2022/03/27 00:03:01;;;;;;;0.73;0.40;;;;;;;0.40;81.34;97173.22;5014320;28;20502;-56
2022/03/27 00:05:26;;;;;;;1.17;0.20;;;;;;;0.52;78.64;97197.53;5015947;28;20041;-53
2022/03/27 00:07:52;;;;;;;0.50;0.38;;;;;;;0.47;79.65;97201.97;5023091;28;20398;-55
2022/03/27 00:10:18;;;;;;;0.47;0.32;;;;;;;0.45;79.02;97206.28;5021908;28;20026;-55
2022/03/27 00:12:44;;;;;;;0.43;0.38;;;;;;;0.32;78.92;97185.41;5024675;28;20044;-55
2022/03/27 00:15:10;;;;;;;0.30;0.20;;;;;;;0.41;77.70;97203.00;5028871;28;20420;-52
2022/03/27 00:17:36;;;;;;;0.20;0.20;;;;;;;0.40;78.80;97216.66;5018417;28;20137;-54
2022/03/27 00:20:08;;;;;;;1.10;0.25;;;;;;;0.39;76.55;97212.44;5015071;28;20131;-56
2022/03/27 00:22:36;;;;;;;1.25;0.32;;;;;;;0.34;77.93;97193.03;5029464;28;20175;-56
2022/03/27 00:25:05;;;;;;;0.73;0.30;;;;;;;0.54;80.36;97220.44;5028690;28;20041;-58
2022/03/27 00:27:31;;;;;;;0.82;0.35;;;;;;;0.63;81.56;97209.94;5023904;28;20049;-57
2022/03/27 00:29:57;;;;;;;1.98;0.40;;;;;;;0.42;73.56;97221.69;5030003;28;20095;-59
2022/03/27 00:32:23;;;;;;;0.40;0.28;;;;;;;0.27;74.45;97201.75;5031614;28;20041;-56
2022/03/27 00:34:49;;;;;;;0.95;0.40;;;;;;;0.06;75.22;97203.31;5031857;28;20045;-56
2022/03/27 00:37:16;;;;;;;0.60;0.25;;;;;;;0.18;76.03;97207.19;5031198;28;20041;-57
2022/03/27 00:39:42;;;;;;;0.43;0.30;;;;;;;0.23;78.52;97216.38;5026866;28;20099;-59
2022/03/27 00:42:08;;;;;;;1.40;0.52;;;;;;;0.27;80.25;97206.88;5030311;28;20453;-58
2022/03/27 00:44:34;;;;;;;1.38;0.85;;;;;;;0.29;81.43;97195.72;5042248;28;20071;-55
2022/03/27 00:47:01;;;;;;;0.70;0.32;;;;;;;0.38;78.61;97222.69;5031644;28;20060;-53
2022/03/27 00:49:28;;;;;;;1.83;0.40;;;;;;;0.29;77.04;97205.13;5027661;28;20505;-56
2022/03/27 00:51:54;;;;;;;0.38;0.38;;;;;;;0.18;79.93;97222.50;5028215;28;20037;-55
2022/03/27 00:54:21;;;;;;;3.42;0.50;;;;;;;0.17;80.95;97226.78;5017737;28;20145;-57
2022/03/27 00:56:46;;;;;;;0.32;0.22;;;;;;;0.13;80.75;97232.88;5030593;28;20509;-54
2022/03/27 00:59:13;;;;;;;0.40;0.35;;;;;;;0.08;81.55;97233.91;5029955;28;20045;-56
2022/03/27 01:01:39;;;;;;;1.05;0.30;;;;;;;0.15;83.75;97228.56;5013976;28;20081;-54
2022/03/27 01:04:06;;;;;;;0.80;0.30;;;;;;;0.19;84.62;97222.47;5031767;28;20094;-55
2022/03/27 01:06:38;;;;;;;5.05;0.40;;;;;;;0.25;86.10;97234.22;5028744;28;20040;-55
2022/03/27 01:11:51;;;;;;;1.38;0.40;;;;;;;0.23;87.12;97234.25;5029806;28;20041;-54
2022/03/27 01:14:33;;;;;;;0.90;0.57;;;;;;;0.11;83.89;97226.97;4994774;28;20049;-55
2022/03/27 01:17:08;;;;;;;0.30;0.30;;;;;;;-0.04;83.25;97235.97;5058758;28;20047;-55
2022/03/27 01:19:35;;;;;;;0.22;0.22;;;;;;;-0.05;84.71;97243.66;5013653;28;20560;-58
2022/03/27 01:22:01;;;;;;;0.68;0.30;;;;;;;0.00;87.00;97241.84;5030934;28;20045;-55
2022/03/27 01:24:27;;;;;;;0.57;0.30;;;;;;;0.01;87.15;97248.59;5031339;28;20044;-59
2022/03/27 01:26:53;;;;;;;0.40;0.30;;;;;;;0.08;88.45;97244.97;5049434;28;20453;-57
2022/03/27 01:29:19;;;;;;;0.80;0.25;;;;;;;0.06;82.75;97246.72;5047112;28;20045;-57
2022/03/27 01:31:46;;;;;;;0.50;0.32;;;;;;;-0.06;86.40;97245.41;5028620;28;20053;-57
2022/03/27 01:34:13;;;;;;;7.22;0.20;;;;;;;0.03;86.96;97253.66;5021006;28;20037;-54
2022/03/27 01:36:38;;;;;;;0.70;0.40;;;;;;;-0.14;87.23;97242.25;5022759;28;20088;-57
2022/03/27 01:39:07;;;;;;;0.20;0.20;;;;;;;0.01;87.39;97251.13;4996224;28;20068;-58
2022/03/27 01:41:33;;;;;;;0.95;0.38;;;;;;;0.11;89.53;97259.34;5030594;28;20525;-57
2022/03/27 01:44:02;;;;;;;0.20;0.20;;;;;;;0.18;90.78;97256.56;5029662;28;20056;-57
2022/03/27 01:46:32;;;;;;;0.40;0.25;;;;;;;0.08;88.04;97250.06;5014552;28;20046;-57
2022/03/27 01:49:00;;;;;;;0.60;0.38;;;;;;;0.02;88.93;97262.19;5029249;28;20498;-55
2022/03/27 01:51:27;;;;;;;0.77;0.25;;;;;;;0.02;89.83;97270.69;5029554;28;20060;-55
2022/03/27 01:53:53;;;;;;;1.15;0.28;;;;;;;-0.11;88.14;97247.28;5029597;28;20049;-56
2022/03/27 01:56:19;;;;;;;1.63;0.40;;;;;;;0.03;90.03;97274.09;5029232;28;20046;-59
2022/03/27 01:58:45;;;;;;;0.40;0.30;;;;;;;0.01;89.37;97281.78;5026921;28;20065;-56
2022/03/27 02:01:11;;;;;;;1.00;0.30;;;;;;;-0.05;88.93;97282.81;5030531;28;20049;-59
2022/03/27 02:03:36;;;;;;;0.47;0.20;;;;;;;-0.11;90.03;97260.03;4995781;28;20043;-57
2022/03/27 02:06:05;;;;;;;2.20;0.40;;;;;;;0.00;91.13;97280.13;5029381;28;20037;-58
2022/03/27 02:08:34;;;;;;;0.70;0.30;;;;;;;0.01;88.56;97286.91;5007708;28;20042;-54
2022/03/27 02:11:03;;;;;;;1.40;0.50;;;;;;;-0.12;89.80;97299.22;5027474;28;20038;-57
2022/03/27 02:13:29;;;;;;;1.02;0.85;;;;;;;-0.05;91.77;97295.56;5020082;28;20502;-56
2022/03/27 02:15:57;;;;;;;0.40;0.30;;;;;;;0.02;92.08;97309.00;5028003;28;20502;-58
2022/03/27 02:18:28;;;;;;;0.52;0.40;;;;;;;-0.16;88.38;97301.91;5028192;28;20041;-60
2022/03/27 02:20:55;;;;;;;1.20;0.40;;;;;;;-0.16;90.17;97310.38;5028427;28;20509;-58
2022/03/27 02:23:24;;;;;;;1.48;0.40;;;;;;;-0.20;91.12;97295.19;5028852;28;20076;-56
2022/03/27 02:25:51;;;;;;;0.30;0.20;;;;;;;-0.15;91.24;97312.06;5029605;28;20128;-57
2022/03/27 02:28:17;;;;;;;1.33;0.45;;;;;;;-0.09;92.64;97316.97;5028450;28;20033;-55
2022/03/27 02:30:43;;;;;;;1.40;0.30;;;;;;;-0.16;92.36;97296.81;5030476;28;20095;-56
2022/03/27 02:33:09;;;;;;;1.05;0.40;;;;;;;-0.16;93.56;97295.06;5030272;28;20149;-58
2022/03/27 02:35:35;;;;;;;0.77;0.35;;;;;;;0.01;92.94;97320.09;5013914;28;20515;-56
2022/03/27 02:38:04;;;;;;;2.50;0.45;;;;;;;-0.02;94.94;97315.94;5010793;28;20034;-57
2022/03/27 02:40:35;;;;;;;2.05;0.50;;;;;;;0.08;94.57;97333.53;5024846;28;20104;-58
2022/03/27 02:43:00;;;;;;;1.25;0.50;;;;;;;0.07;95.02;97332.69;5027609;28;20083;-59
2022/03/27 02:45:27;;;;;;;1.77;0.38;;;;;;;0.07;95.10;97345.44;5018214;28;20042;-58
2022/03/27 02:47:57;;;;;;;3.75;0.43;;;;;;;-0.02;96.39;97322.75;5014753;28;20053;-57
2022/03/27 02:50:23;;;;;;;;;;;;;;;0.08;96.05;97341.19;5013718;28;20048;-56
2022/03/27 02:52:48;;;;;;;0.93;0.43;;;;;;;0.05;96.22;97343.84;5014305;28;19921;-57
2022/03/27 02:55:14;;;;;;;0.77;0.38;;;;;;;-0.04;95.61;97368.75;5026272;28;20045;-59
2022/03/27 02:57:40;;;;;;;1.90;0.55;;;;;;;-0.02;96.56;97364.44;5034239;28;20442;-59
2022/03/27 03:00:08;;;;;;;1.45;0.50;;;;;;;0.03;96.49;97366.03;5043739;28;20580;-56
2022/03/27 03:02:35;;;;;;;0.85;0.40;;;;;;;0.00;96.13;97369.53;5032775;28;20537;-56
2022/03/27 03:05:01;;;;;;;2.45;0.57;;;;;;;-0.26;94.43;97331.16;5032744;28;20525;-53
2022/03/27 03:07:29;;;;;;;1.00;0.50;;;;;;;-0.27;95.69;97340.53;5016636;28;20041;-57
2022/03/27 03:09:57;;;;;;;1.52;0.57;;;;;;;-0.16;95.36;97368.28;5023391;28;20522;-56
2022/03/27 03:12:22;;;;;;;0.50;0.38;;;;;;;-0.08;95.36;97382.50;5013146;28;20038;-58
2022/03/27 03:14:48;;;;;;;1.38;0.65;;;;;;;-0.06;96.07;97375.66;5033793;28;20041;-58
2022/03/27 03:17:14;;;;;;;0.73;0.40;;;;;;;-0.07;95.43;97391.84;5029728;28;20090;-58
2022/03/27 03:19:40;;;;;;;3.15;0.57;;;;;;;-0.01;96.29;97384.00;5012762;28;20050;-54
2022/03/27 03:22:07;;;;;;;0.68;0.20;;;;;;;-0.11;94.19;97407.28;5045883;28;20505;-56
2022/03/27 03:24:34;;;;;;;3.00;0.45;;;;;;;-0.22;93.18;97396.53;5021003;28;20041;-59
2022/03/27 03:27:00;;;;;;;1.00;0.50;;;;;;;-0.19;93.87;97427.91;5018361;28;20042;-58
2022/03/27 03:29:26;;;;;;;1.75;0.40;;;;;;;-0.23;93.18;97413.56;5013878;28;20049;-58
2022/03/27 03:31:52;;;;;;;0.70;0.35;;;;;;;-0.31;91.42;97424.84;5013669;28;20044;-59
2022/03/27 03:34:18;;;;;;;0.70;0.45;;;;;;;-0.30;91.32;97421.44;5016506;28;20040;-59
2022/03/27 03:36:44;;;;;;;2.13;0.60;;;;;;;-0.26;92.07;97436.63;5048938;28;20033;-59
2022/03/27 03:39:10;;;;;;;0.35;0.22;;;;;;;-0.30;92.03;97411.22;5061531;28;20063;-56
2022/03/27 03:41:35;;;;;;;4.70;0.50;;;;;;;-0.36;90.22;97430.09;5011896;28;20088;-58
2022/03/27 03:44:01;;;;;;;0.32;0.30;;;;;;;-0.39;90.24;97440.41;5021596;28;20037;-59
2022/03/27 03:46:27;;;;;;;1.02;0.40;;;;;;;-0.37;90.33;97443.75;5033320;28;20045;-58
2022/03/27 03:48:53;;;;;;;7.78;0.50;;;;;;;-0.35;90.43;97448.78;5065454;28;20041;-59
2022/03/27 03:51:19;;;;;;;3.90;0.47;;;;;;;-0.29;90.22;97453.75;5015612;28;20052;-59
2022/03/27 03:53:45;;;;;;;0.52;0.25;;;;;;;-0.41;89.26;97447.25;5013523;28;20042;-58
2022/03/27 03:56:14;;;;;;;1.55;0.45;;;;;;;-0.29;88.71;97475.00;5028472;28;20056;-55
2022/03/27 03:58:40;;;;;;;1.38;0.50;;;;;;;-0.27;89.47;97477.53;5031849;28;20071;-56
2022/03/27 04:01:06;;;;;;;1.73;0.40;;;;;;;-0.23;89.86;97479.94;5016296;28;20050;-62
2022/03/27 04:03:31;;;;;;;0.55;0.30;;;;;;;-0.17;90.69;97481.50;5030268;28;20060;-55
2022/03/27 04:05:57;;;;;;;1.25;0.50;;;;;;;-0.18;90.01;97500.25;5033175;28;20045;-57
2022/03/27 04:08:23;;;;;;;1.55;0.47;;;;;;;-0.29;89.98;97486.94;5042941;28;20083;-57
2022/03/27 04:10:49;;;;;;;1.15;0.32;;;;;;;-0.26;90.34;97495.34;5033071;28;20073;-56
2022/03/27 04:13:15;;;;;;;3.20;0.57;;;;;;;-0.26;89.54;97508.09;5031553;28;20044;-58
2022/03/27 04:15:41;;;;;;;1.73;0.45;;;;;;;-0.25;88.46;97506.38;5032837;28;20052;-59
2022/03/27 04:18:07;;;;;;;0.80;0.40;;;;;;;-0.23;89.68;97533.56;5017202;28;20046;-57
2022/03/27 04:20:34;;;;;;;2.83;0.63;;;;;;;-0.19;90.14;97530.03;5020864;28;20089;-59
2022/03/27 04:23:01;;;;;;;2.22;0.93;;;;;;;-0.20;89.81;97520.69;5033487;28;20053;-57
2022/03/27 04:25:26;;;;;;;2.50;0.45;;;;;;;-0.16;89.41;97544.47;5026538;28;20103;-58
2022/03/27 04:27:52;;;;;;;2.47;0.60;;;;;;;-0.10;89.78;97546.81;5018275;28;20119;-56
2022/03/27 04:30:18;;;;;;;3.25;0.55;;;;;;;-0.07;89.28;97562.94;5031963;28;20044;-57
2022/03/27 04:32:44;;;;;;;0.95;0.50;;;;;;;-0.13;89.47;97552.03;5021688;28;20041;-57
2022/03/27 04:35:10;;;;;;;0.95;0.60;;;;;;;-0.06;89.74;97562.06;5032147;28;20037;-58
2022/03/27 04:37:43;;;;;;;1.88;0.60;;;;;;;-0.04;89.46;97572.22;5031742;28;20107;-59
2022/03/27 04:40:13;;;;;;;0.75;0.30;;;;;;;0.03;89.01;97580.56;5030381;28;20044;-58
2022/03/27 04:42:39;;;;;;;0.95;0.40;;;;;;;0.04;88.95;97580.53;5032015;28;20573;-56
2022/03/27 04:45:05;;;;;;;1.00;0.30;;;;;;;0.06;89.00;97580.47;5031538;28;20045;-56
2022/03/27 04:47:31;;;;;;;1.38;0.52;;;;;;;0.06;88.52;97586.41;5031863;28;20549;-58
2022/03/27 04:49:56;;;;;;;4.93;0.50;;;;;;;0.17;88.27;97598.91;5030264;28;20045;-55
2022/03/27 04:52:22;;;;;;;0.35;0.32;;;;;;;0.18;86.96;97591.22;5031951;28;20087;-58
2022/03/27 04:54:48;;;;;;;2.03;0.40;;;;;;;0.06;86.37;97586.41;5031212;28;20505;-57
2022/03/27 04:57:15;;;;;;;3.70;0.30;;;;;;;0.21;85.86;97603.88;5031626;28;20087;-54
2022/03/27 04:59:41;;;;;;;0.52;0.38;;;;;;;0.32;85.25;97601.03;5028946;28;20041;-57
2022/03/27 05:02:07;;;;;;;1.02;0.30;;;;;;;0.37;84.23;97617.09;5031533;28;20080;-57
2022/03/27 05:04:33;;;;;;;2.17;0.60;;;;;;;0.42;84.09;97616.09;5030784;28;20041;-56
2022/03/27 05:06:59;;;;;;;3.08;0.55;;;;;;;0.35;81.90;97604.38;5030605;28;20037;-57
2022/03/27 05:09:25;;;;;;;1.00;0.38;;;;;;;0.36;80.81;97612.88;5030093;28;20092;-58
2022/03/27 05:11:50;;;;;;;1.58;0.40;;;;;;;0.38;78.98;97600.88;5063881;28;20468;-58
2022/03/27 05:14:16;;;;;;;2.70;0.50;;;;;;;0.55;78.72;97629.38;5029309;28;20041;-56
2022/03/27 05:16:42;;;;;;;1.48;0.40;;;;;;;0.63;77.80;97629.19;5030348;28;20532;-56
2022/03/27 05:19:08;;;;;;;1.15;0.30;;;;;;;0.59;76.60;97623.31;5030271;28;20049;-55
2022/03/27 05:21:35;;;;;;;0.63;0.43;;;;;;;0.72;76.14;97657.06;5030743;28;20044;-57
2022/03/27 05:24:01;;;;;;;0.93;0.22;;;;;;;0.71;74.80;97651.09;5031410;28;20040;-56
2022/03/27 05:26:28;;;;;;;2.55;0.50;;;;;;;0.66;74.17;97639.31;5018675;28;20505;-56
2022/03/27 05:28:54;;;;;;;1.15;0.50;;;;;;;0.86;75.17;97662.59;5044730;28;20579;-58
2022/03/27 05:31:21;;;;;;;0.80;0.40;;;;;;;0.92;74.00;97662.44;5018072;28;20045;-58
2022/03/27 05:33:47;;;;;;;2.50;0.38;;;;;;;0.84;73.35;97675.44;5029471;28;20068;-55
2022/03/27 05:36:13;;;;;;;0.98;0.30;;;;;;;0.79;72.46;97669.59;5028910;28;20044;-59
2022/03/27 05:38:40;;;;;;;1.33;0.40;;;;;;;0.82;73.55;97674.66;5029812;28;20135;-56
2022/03/27 05:41:07;;;;;;;10.73;0.65;;;;;;;0.83;73.62;97681.44;5030492;28;20080;-56
2022/03/27 05:43:34;;;;;;;0.90;0.40;;;;;;;0.82;74.67;97681.47;5029674;28;20514;-58
2022/03/27 05:46:00;;;;;;;0.80;0.45;;;;;;;0.66;74.54;97688.75;5067000;28;20037;-56
2022/03/27 05:48:26;;;;;;;0.50;0.50;;;;;;;0.57;76.27;97695.81;5030658;28;20114;-56
2022/03/27 05:50:52;;;;;;;2.10;0.40;;;;;;;0.51;77.81;97703.63;5029728;28;20501;-57
2022/03/27 05:53:18;;;;;;;1.48;0.60;;;;;;;0.37;79.32;97701.44;5030592;28;20481;-58
2022/03/27 05:55:44;;;;;;;1.27;0.50;;;;;;;0.25;81.41;97705.16;5024743;28;20088;-56
2022/03/27 05:58:10;;;;;;;2.92;0.63;;;;;;;0.23;82.82;97706.06;5043184;28;20049;-56
2022/03/27 06:00:35;;;;;;;2.25;0.60;;;;;;;0.25;83.88;97720.47;5009774;28;20045;-56
2022/03/27 06:03:01;;;;;;;1.25;0.50;;;;;;;0.31;84.67;97722.88;5016449;28;20048;-60
2022/03/27 06:05:27;;;;;;;1.95;0.80;;;;;;;0.35;84.46;97710.88;5002891;28;20048;-56
2022/03/27 06:07:54;;;;;;;3.88;0.60;;;;;;;0.46;84.63;97724.22;5013339;28;20037;-57
2022/03/27 06:10:26;;;;;;;2.42;0.57;;;;;;;0.62;84.04;97742.56;5029396;28;20053;-55
2022/03/27 06:12:52;;;;;;;1.02;0.45;;;;;;;0.65;79.13;97730.50;5056330;28;20136;-55
2022/03/27 06:15:19;;;;;;;1.77;0.55;;;;;;;0.75;76.22;97739.63;5023833;28;20049;-51
2022/03/27 06:17:47;;;;;;;4.75;0.52;;;;;;;1.01;77.28;97740.63;5027605;28;20037;-60
2022/03/27 06:20:21;;;;;;;4.85;0.40;;;;;;;1.32;74.87;97743.16;5033495;28;20417;-61
2022/03/27 06:22:47;;;;;;;1.48;0.50;;;;;;;1.74;73.65;97751.31;5036978;28;20048;-60
2022/03/27 06:25:18;;;;;;;0.98;0.60;;;;;;;2.23;70.03;97745.50;5036194;28;20029;-61
2022/03/27 06:27:45;;;;;;;2.95;0.50;;;;;;;2.11;71.93;97767.25;5037191;28;20061;-61
2022/03/27 06:30:13;;;;;;;1.88;0.60;;;;;;;2.02;74.01;97763.25;5035019;28;20075;-60
2022/03/27 06:32:39;;;;;;;1.47;0.73;;;;;;;1.70;71.53;97737.78;5016420;28;20045;-60
2022/03/27 06:35:06;;;;;;;4.78;0.50;;;;;;;1.82;72.06;97780.97;5032645;28;20056;-61
2022/03/27 06:37:32;;;;;;;1.10;0.50;;;;;;;1.91;71.87;97765.31;5016235;28;20042;-59
2022/03/27 06:39:58;;;;;;;4.38;0.77;;;;;;;2.03;70.03;97787.16;4999969;28;20505;-60
2022/03/27 06:42:26;;;;;;;2.35;0.70;;;;;;;2.26;71.27;97786.41;5035620;28;22027;-61
2022/03/27 06:44:54;;;;;;;1.23;0.52;;;;;;;2.31;71.50;97792.25;5019974;28;20048;-60
2022/03/27 06:47:20;;;;;;;3.50;0.98;;;;;;;2.26;71.82;97797.50;5035474;28;20096;-61
2022/03/27 06:49:46;;;;;;;2.75;0.55;;;;;;;2.29;72.07;97827.38;5035974;28;20038;-60
2022/03/27 06:52:12;;;;;;;1.08;0.50;;;;;;;2.10;72.38;97802.28;5004411;28;20046;-59
2022/03/27 06:54:38;;;;;;;1.58;0.43;;;;;;;2.14;72.93;97833.81;5017309;28;20571;-58
2022/03/27 06:57:04;;;;;;;3.13;0.70;;;;;;;2.19;71.05;97833.66;5045543;28;20128;-60
2022/03/27 07:03:01;;;;;;;1.58;0.57;;;;;;;2.13;70.35;97837.25;5017500;28;20050;-61
2022/03/27 07:05:00;;;;;;;0.75;0.60;;;;;;;2.05;70.79;97840.03;5018633;28;20127;-60
2022/03/27 07:07:26;;;;;;;1.05;0.73;;;;;;;2.17;70.24;97846.50;5021432;28;20525;-59
2022/03/27 07:09:52;;;;;;;1.67;0.88;;;;;;;2.42;68.69;97854.28;5035362;28;20045;-60
2022/03/27 07:12:17;;;;;;;1.88;1.00;;;;;;;2.44;69.08;97832.84;5015067;28;20037;-61
2022/03/27 07:14:44;;;;;;;1.50;0.80;;;;;;;2.49;67.66;97854.06;5035805;28;20037;-59
2022/03/27 07:17:10;;;;;;;2.08;0.65;;;;;;;2.51;67.72;97854.03;5034447;28;20041;-59
2022/03/27 07:19:35;;;;;;;1.77;0.90;;;;;;;2.41;65.08;97852.59;5035478;28;20037;-57
2022/03/27 07:22:01;;;;;;;1.92;0.85;;;;;;;2.45;65.24;97851.63;5035930;28;20124;-60
2022/03/27 07:24:28;;;;;;;4.47;0.60;;;;;;;2.49;65.68;97869.44;5018313;28;20091;-59
2022/03/27 07:26:54;;;;;;;1.88;0.70;;;;;;;2.37;63.52;97880.06;5036096;28;20115;-56
2022/03/27 07:29:20;;;;;;;3.00;0.90;;;;;;;2.22;65.57;97854.06;5035951;28;20566;-60
2022/03/27 07:31:48;;;;;;;1.67;0.82;;;;;;;2.14;66.36;97885.06;5032905;28;20540;-59
2022/03/27 07:34:14;;;;;;;3.88;0.95;;;;;;;1.98;67.27;97891.50;5040928;28;20069;-58
2022/03/27 07:36:40;;;;;;;1.73;0.57;;;;;;;2.04;67.39;97881.09;5031124;28;20049;-57
2022/03/27 07:39:06;;;;;;;1.15;0.70;;;;;;;2.16;67.59;97890.13;5031518;28;20037;-57
2022/03/27 07:41:32;;;;;;;1.30;0.50;;;;;;;2.36;67.84;97896.31;5031176;28;20037;-54
2022/03/27 07:43:57;;;;;;;4.78;0.68;;;;;;;2.72;67.23;97904.63;5032995;28;20084;-57
2022/03/27 07:46:23;;;;;;;1.67;0.65;;;;;;;2.73;67.14;97906.28;5029485;28;20497;-57
2022/03/27 07:48:49;;;;;;;1.58;0.70;;;;;;;2.58;66.52;97895.69;5032428;28;20049;-58
2022/03/27 07:51:15;;;;;;;1.50;0.55;;;;;;;2.50;66.13;97906.19;5033492;28;20041;-54
2022/03/27 07:53:41;;;;;;;1.30;0.60;;;;;;;2.46;64.46;97907.19;5029590;28;20045;-57
2022/03/27 07:56:07;;;;;;;5.60;0.60;;;;;;;2.69;63.12;97911.56;5031845;28;20532;-58
2022/03/27 07:58:32;;;;;;;0.90;0.50;;;;;;;3.24;63.28;97908.09;5033194;28;20122;-53
2022/03/27 08:00:58;;;;;;;1.42;0.75;;;;;;;3.48;63.08;97920.09;5032534;28;20112;-57
2022/03/27 08:03:24;;;;;;;1.50;0.68;;;;;;;3.38;64.10;97906.72;5031474;28;20037;-58
2022/03/27 08:05:50;;;;;;;3.78;0.60;;;;;;;3.12;63.48;97914.44;5032272;28;20110;-55
2022/03/27 08:08:17;;;;;;;1.58;0.70;;;;;;;3.09;64.16;97918.88;5032019;28;20053;-57
2022/03/27 08:10:43;;;;;;;2.85;0.80;;;;;;;2.83;64.07;97945.31;5031356;28;20044;-57
2022/03/27 08:13:09;;;;;;;3.88;0.77;;;;;;;2.70;64.70;97949.19;5028722;28;20091;-59
2022/03/27 08:15:35;;;;;;;2.30;0.55;;;;;;;2.53;65.47;97939.41;5032502;28;20049;-53
2022/03/27 08:18:01;;;;;;;1.15;0.60;;;;;;;2.45;64.65;97939.66;5012084;28;20053;-58
2022/03/27 08:20:27;;;;;;;0.82;0.38;;;;;;;2.84;65.13;97965.81;5032514;28;20037;-57
2022/03/27 08:22:54;;;;;;;1.15;0.57;;;;;;;2.95;62.60;97966.31;5032343;28;20048;-54
2022/03/27 08:28:07;;;;;;;1.45;0.65;;;;;;;3.42;63.61;97967.34;5030997;28;20041;-54
2022/03/27 08:30:33;;;;;;;2.60;0.68;;;;;;;4.45;60.04;97967.16;5009829;28;20042;-58
2022/03/27 08:32:59;;;;;;;1.10;0.70;;;;;;;5.62;56.02;97947.84;5014637;28;20051;-58
2022/03/27 08:35:24;;;;;;;0.70;0.52;;;;;;;6.85;53.97;97963.00;5031888;28;20120;-59
2022/03/27 08:37:50;;;;;;;7.03;0.70;;;;;;;6.37;57.14;97968.66;5030439;28;20084;-55
2022/03/27 08:40:18;;;;;;;3.13;0.80;;;;;;;5.38;57.75;97993.53;5029861;28;20117;-54
2022/03/27 08:42:44;;;;;;;1.00;0.60;;;;;;;4.59;57.50;97988.91;5031117;28;20041;-53
2022/03/27 08:45:10;;;;;;;1.67;0.50;;;;;;;3.90;57.53;97982.00;5029301;28;20037;-56
2022/03/27 08:47:38;;;;;;;1.75;0.63;;;;;;;3.95;58.03;97987.81;5029434;28;20429;-57
2022/03/27 08:50:14;;;;;;;3.58;0.68;;;;;;;5.69;54.28;97995.69;5013851;28;20045;-59
2022/03/27 08:52:54;;;;;;;1.65;0.50;;;;;;;6.63;53.59;97998.47;5010984;28;20033;-55
2022/03/27 08:55:23;;;;;;;1.00;0.70;;;;;;;5.98;57.13;97991.88;5028137;28;20087;-57
2022/03/27 08:57:55;;;;;;;2.65;0.55;;;;;;;5.41;56.12;98008.84;5012482;28;20048;-54
2022/03/27 09:00:23;;;;;;;1.10;0.52;;;;;;;4.81;56.48;98017.25;5028417;28;20133;-52
2022/03/27 09:02:49;;;;;;;4.60;0.75;;;;;;;4.32;55.66;97994.22;5029101;28;20068;-56
2022/03/27 09:05:16;;;;;;;1.00;0.52;;;;;;;3.90;56.54;98010.28;5029374;28;20037;-53
2022/03/27 09:07:41;;;;;;;3.63;0.80;;;;;;;3.61;57.48;98024.09;5042229;28;20042;-53
2022/03/27 09:10:09;;;;;;;1.13;0.35;;;;;;;3.23;57.61;98024.50;5030606;28;20052;-55
2022/03/27 09:12:37;;;;;;;2.40;1.02;;;;;;;3.34;59.07;98025.84;5026866;28;20091;-57
2022/03/27 09:15:07;;;;;;;4.10;0.52;;;;;;;4.41;58.03;98032.47;5035182;28;20052;-59
2022/03/27 09:17:33;;;;;;;2.80;1.15;;;;;;;5.58;56.21;98030.53;5049399;28;20055;-57
2022/03/27 09:19:58;;;;;;;3.15;1.67;;;;;;;6.57;53.59;98038.31;5033923;28;20072;-52
2022/03/27 09:22:32;;;;;;;1.83;0.60;;;;;;;6.23;55.24;98031.19;5029514;28;20048;-53
2022/03/27 09:25:04;;;;;;;2.33;0.77;;;;;;;5.64;55.40;98072.38;5031187;28;20087;-53
2022/03/27 09:27:36;;;;;;;1.90;0.70;;;;;;;4.98;57.68;98073.22;5033316;28;20048;-57
2022/03/27 09:30:08;;;;;;;0.85;0.60;;;;;;;4.64;57.46;98077.06;5045485;28;20505;-56
2022/03/27 09:32:38;;;;;;;1.50;0.60;;;;;;;4.43;57.78;98062.41;5035959;28;20471;-60
2022/03/27 09:35:12;;;;;;;2.95;0.90;;;;;;;4.24;58.33;98077.63;5037895;28;20501;-63
2022/03/27 09:37:45;;;;;;;1.25;0.50;;;;;;;4.04;58.81;98097.19;5031984;28;20052;-57
2022/03/27 09:40:12;;;;;;;4.20;0.60;;;;;;;3.66;60.83;98065.91;5030060;28;20041;-51
2022/03/27 09:42:40;;;;;;;6.63;1.52;;;;;;;3.73;61.87;98105.94;4995876;28;20049;-54
2022/03/27 09:45:19;;;;;;;6.25;1.15;;;;;;;3.76;62.35;98108.41;5030208;28;20059;-50
2022/03/27 09:47:47;;;;;;;1.75;0.88;;;;;;;4.55;62.79;98110.03;5030164;28;20038;-55
2022/03/27 09:50:35;;;;;;;2.95;0.73;;;;;;;5.16;59.64;98098.31;5029244;28;20131;-52
2022/03/27 09:53:18;;;;;;;1.73;0.82;;;;;;;5.44;59.44;98100.66;5031279;28;20045;-55
2022/03/27 09:55:44;;;;;;;4.68;1.05;;;;;;;5.61;58.84;98098.25;5029694;28;20045;-53
2022/03/27 09:58:12;;;;;;;6.38;1.60;;;;;;;5.04;58.12;98098.75;5028424;28;20128;-51
2022/03/27 10:00:38;;;;;;;1.23;0.80;;;;;;;4.57;59.80;98127.06;5029199;28;20537;-51
2022/03/27 10:03:10;;;;;;;4.90;1.13;;;;;;;4.50;59.87;98110.16;5029380;28;20127;-50
2022/03/27 10:05:37;;;;;;;2.03;0.80;;;;;;;4.24;60.87;98149.66;5037838;28;20167;-53
2022/03/27 10:08:03;;;;;;;5.72;1.42;;;;;;;3.69;61.94;98153.19;5011925;28;20048;-54
2022/03/27 10:10:29;;;;;;;3.75;0.95;;;;;;;3.53;62.36;98148.56;5012418;28;20425;-51
2022/03/27 10:12:56;;;;;;;8.85;1.23;;;;;;;4.36;63.64;98160.41;5020137;28;20390;-55
2022/03/27 10:15:24;;;;;;;2.58;0.90;;;;;;;5.25;61.11;98151.22;5044581;28;20125;-57
2022/03/27 10:17:55;;;;;;;2.60;1.00;;;;;;;5.31;60.39;98156.13;5007452;28;20046;-51
2022/03/27 10:20:22;;;;;;;2.95;0.90;;;;;;;5.23;59.19;98155.59;5010665;28;20045;-52
2022/03/27 10:22:49;;;;;;;3.78;1.27;;;;;;;5.76;60.19;98169.81;5030374;28;20709;-53
2022/03/27 10:25:17;;;;;;;7.85;1.02;;;;;;;6.88;57.04;98164.31;5032129;28;20107;-53
2022/03/27 10:27:45;;;;;;;3.03;0.75;;;;;;;7.16;55.72;98167.38;5028297;28;20056;-53
2022/03/27 10:30:13;;;;;;;2.43;1.13;;;;;;;6.90;55.74;98178.03;5027262;28;20042;-55
2022/03/27 10:32:41;;;;;;;2.75;0.93;;;;;;;6.50;56.33;98181.44;5020315;28;20041;-56
2022/03/27 10:35:14;;;;;;;4.10;0.70;;;;;;;6.03;55.76;98183.41;5007460;28;20516;-54
2022/03/27 10:37:47;;;;;;;2.35;0.90;;;;;;;5.41;56.03;98185.81;5006440;28;20041;-56
2022/03/27 10:40:21;;;;;;;5.30;0.93;;;;;;;5.07;56.39;98189.66;5041708;28;20072;-57
2022/03/27 10:43:23;;;;;;;5.00;1.00;;;;;;;5.05;57.58;98201.72;5026744;28;20041;-53
2022/03/27 10:46:12;;;;;;;4.07;1.10;;;;;;;5.07;56.16;98205.09;5007263;28;20053;-54
2022/03/27 10:48:42;;;;;;;6.38;1.38;;;;;;;4.86;55.52;98184.41;5041916;28;20120;-53
2022/03/27 10:51:09;;;;;;;1.85;0.70;;;;;;;5.16;54.64;98197.91;5011337;28;20118;-53
2022/03/27 10:53:35;;;;;;;2.25;0.75;;;;;;;5.08;52.42;98196.47;5004597;28;20417;-59
2022/03/27 10:56:00;;;;;;;2.60;1.05;;;;;;;4.92;52.62;98203.03;5019113;28;20040;-53
2022/03/27 10:58:28;;;;;;;2.88;0.70;;;;;;;4.64;52.03;98226.34;5009069;28;20056;-53
2022/03/27 11:00:54;;;;;;;2.92;1.08;;;;;;;4.35;51.95;98215.31;5022314;28;20060;-56
2022/03/27 11:04:08;;;;;;;1.42;0.60;;;;;;;4.11;50.70;98224.69;5020013;28;20047;-53
2022/03/27 11:06:40;;;;;;;2.00;0.70;;;;;;;4.29;50.57;98233.56;4990238;28;20042;-52
2022/03/27 11:09:10;;;;;;;1.80;0.75;;;;;;;4.18;50.36;98246.75;5023988;28;20485;-55
2022/03/27 11:11:35;;;;;;;3.03;0.70;;;;;;;4.11;50.62;98235.81;5028095;28;20045;-58
2022/03/27 11:14:02;;;;;;;3.30;1.08;;;;;;;4.11;50.70;98245.25;5023748;28;20609;-55
2022/03/27 11:16:28;;;;;;;2.97;0.88;;;;;;;4.35;50.79;98249.63;5063597;28;20513;-52
2022/03/27 11:18:53;;;;;;;3.25;1.00;;;;;;;4.40;49.49;98267.47;5027483;28;20044;-50
2022/03/27 11:21:28;;;;;;;4.85;0.80;;;;;;;4.33;49.15;98248.00;5030229;28;20053;-53
2022/03/27 11:24:15;;;;;;;1.55;0.60;;;;;;;4.16;48.56;98244.22;5028778;28;20394;-53
2022/03/27 11:26:41;;;;;;;4.03;0.52;;;;;;;3.94;47.92;98258.63;5028381;28;21078;-53
2022/03/27 11:29:10;;;;;;;2.17;0.73;;;;;;;3.79;47.15;98277.94;5029564;28;20041;-55
2022/03/27 11:31:37;;;;;;;1.50;0.70;;;;;;;3.57;46.32;98279.44;5029425;28;20576;-55
2022/03/27 11:34:12;;;;;;;5.80;1.15;;;;;;;3.94;47.05;98286.06;5028927;28;20037;-58
2022/03/27 11:36:39;;;;;;;2.53;0.88;;;;;;;4.24;46.37;98292.84;5029767;28;20444;-57
2022/03/27 11:39:11;;;;;;;1.60;0.60;;;;;;;4.49;46.46;98282.63;5063268;28;20046;-51
2022/03/27 11:41:46;;;;;;;1.33;0.73;;;;;;;4.48;46.78;98299.81;5027269;28;20045;-52
2022/03/27 11:47:23;;;;;;;3.33;0.63;;;;;;;3.61;46.46;98290.50;5037015;28;20065;-52
2022/03/27 11:49:51;;;;;;;2.67;0.80;;;;;;;3.56;47.56;98311.16;5050613;28;20048;-59
2022/03/27 11:52:22;;;;;;;3.15;0.82;;;;;;;3.69;47.73;98322.78;5032375;28;20032;-55
2022/03/27 11:54:48;;;;;;;3.72;0.75;;;;;;;3.62;47.39;98305.84;5024845;28;20103;-53